createdAt,value
2018-04-13T00:00:01.427Z,0.30
2018-04-13T00:02:35.027Z,3.63
2018-04-13T00:05:08.807Z,0.67
2018-04-13T00:07:42.567Z,3.13
2018-04-13T00:10:17.023Z,2.00
2018-04-13T00:12:50.691Z,0.80
2018-04-13T00:15:24.508Z,1.43
2018-04-13T00:17:58.216Z,1.30
2018-04-13T00:20:31.990Z,2.33
2018-04-13T00:23:05.770Z,1.63
2018-04-13T00:25:39.387Z,1.00
2018-04-13T00:28:13.123Z,1.40
2018-04-13T00:30:46.903Z,1.23
2018-04-13T00:33:20.566Z,0.30
2018-04-13T00:35:54.169Z,0.40
2018-04-13T00:38:28.788Z,0.60
2018-04-13T00:41:02.370Z,1.20
2018-04-13T00:43:36.106Z,3.33
2018-04-13T00:46:09.804Z,2.30
2018-04-13T00:48:44.135Z,1.73
2018-04-13T00:51:17.895Z,0.47
2018-04-13T00:53:51.680Z,1.60
2018-04-13T00:56:25.428Z,7.30
2018-04-13T00:58:59.978Z,0.50
2018-04-13T01:01:33.596Z,1.30
2018-04-13T01:04:07.169Z,2.43
2018-04-13T01:06:40.880Z,0.70
2018-04-13T01:09:14.589Z,0.47
2018-04-13T01:11:48.381Z,0.40
2018-04-13T01:14:22.159Z,0.30
2018-04-13T01:16:55.860Z,0.30
2018-04-13T01:19:29.666Z,0.90
2018-04-13T01:22:03.401Z,0.80
2018-04-13T01:24:37.879Z,1.13
2018-04-13T01:27:12.399Z,0.30
2018-04-13T01:29:45.952Z,3.10
2018-04-13T01:32:19.690Z,0.40
2018-04-13T01:34:54.181Z,1.23
2018-04-13T01:37:27.864Z,1.83
2018-04-13T01:40:02.404Z,0.40
2018-04-13T01:42:36.175Z,2.10
2018-04-13T01:45:09.930Z,2.43
2018-04-13T01:47:43.539Z,0.53
2018-04-13T01:50:17.245Z,1.17
2018-04-13T01:52:51.026Z,0.30
2018-04-13T01:55:24.816Z,0.30
2018-04-13T01:57:58.537Z,0.30
2018-04-13T02:00:33.079Z,0.30
2018-04-13T02:03:06.690Z,0.50
2018-04-13T02:05:40.230Z,0.53
2018-04-13T02:08:13.970Z,1.37
2018-04-13T02:10:48.472Z,2.47
2018-04-13T02:13:22.051Z,0.60
2018-04-13T02:15:55.809Z,0.30
2018-04-13T02:18:29.528Z,2.43
2018-04-13T02:21:03.288Z,0.30
2018-04-13T02:23:36.929Z,0.30
2018-04-13T02:26:11.220Z,0.97
2018-04-13T02:28:44.916Z,3.03
2018-04-13T02:31:18.873Z,0.40
2018-04-13T02:33:52.644Z,0.30
2018-04-13T02:36:27.158Z,1.57
2018-04-13T02:39:00.867Z,4.23
2018-04-13T02:41:34.459Z,1.93
2018-04-13T02:44:08.215Z,4.20
2018-04-13T02:46:41.833Z,0.50
2018-04-13T02:49:15.619Z,0.40
2018-04-13T02:51:50.707Z,2.10
2018-04-13T02:54:24.511Z,4.77
2018-04-13T02:56:58.154Z,3.60
2018-04-13T03:02:11.644Z,0.30
2018-04-13T03:04:46.166Z,0.97
2018-04-13T03:07:19.868Z,0.67
2018-04-13T03:09:54.438Z,0.30
2018-04-13T03:12:28.056Z,1.80
2018-04-13T03:15:01.974Z,0.40
2018-04-13T03:17:35.591Z,6.43
2018-04-13T03:20:09.378Z,1.00
2018-04-13T03:22:43.068Z,4.67
2018-04-13T03:25:17.474Z,0.70
2018-04-13T03:27:51.162Z,1.13
2018-04-13T03:30:24.931Z,0.83
2018-04-13T03:32:59.403Z,3.00
2018-04-13T03:35:33.151Z,5.60
2018-04-13T03:38:06.910Z,0.30
2018-04-13T03:40:40.627Z,2.80
2018-04-13T03:43:14.348Z,5.50
2018-04-13T03:45:48.110Z,0.30
2018-04-13T03:48:21.806Z,5.07
2018-04-13T03:50:55.423Z,1.17
2018-04-13T03:53:29.215Z,0.37
2018-04-13T03:56:02.952Z,1.90
2018-04-13T03:58:36.651Z,9.40
2018-04-13T04:01:10.240Z,2.83
2018-04-13T04:03:44.028Z,0.30
2018-04-13T04:06:18.453Z,3.50
2018-04-13T04:08:53.188Z,3.30
2018-04-13T04:11:26.883Z,0.40
2018-04-13T04:14:01.324Z,2.67
2018-04-13T04:16:35.897Z,0.30
2018-04-13T04:19:09.675Z,0.57
2018-04-13T04:21:55.134Z,6.10
2018-04-13T04:24:42.411Z,3.00
2018-04-13T04:27:16.454Z,3.90
2018-04-13T04:29:50.048Z,0.87
2018-04-13T04:32:24.298Z,2.13
2018-04-13T04:34:58.079Z,2.93
2018-04-13T04:37:31.749Z,4.17
2018-04-13T04:40:05.992Z,1.33
2018-04-13T04:42:40.363Z,1.63
2018-04-13T04:47:54.186Z,0.33
2018-04-13T04:50:28.720Z,0.30
2018-04-13T04:53:02.371Z,1.93
2018-04-13T04:55:36.151Z,0.30
2018-04-13T04:58:09.840Z,2.20
2018-04-13T05:00:43.612Z,1.90
2018-04-13T05:03:17.330Z,1.63
2018-04-13T05:05:51.095Z,0.63
2018-04-13T05:08:24.861Z,1.47
2018-04-13T05:10:58.558Z,0.30
2018-04-13T05:13:32.685Z,0.30
2018-04-13T05:16:06.470Z,0.40
2018-04-13T05:18:40.274Z,4.63
2018-04-13T05:21:14.000Z,0.70
2018-04-13T05:23:47.777Z,8.33
2018-04-13T05:26:21.515Z,4.17
2018-04-13T05:28:55.218Z,0.60
2018-04-13T05:31:29.895Z,0.30
2018-04-13T05:34:03.949Z,0.97
2018-04-13T05:36:37.648Z,0.30
2018-04-13T05:39:11.398Z,0.77
2018-04-13T05:41:45.753Z,1.03
2018-04-13T05:44:19.388Z,2.10
2018-04-13T05:46:54.034Z,8.50
2018-04-13T05:49:27.674Z,7.37
2018-04-13T05:52:02.996Z,1.30
2018-04-13T05:54:37.454Z,2.40
2018-04-13T05:57:11.975Z,2.90
2018-04-13T05:59:45.717Z,2.93
2018-04-13T06:02:20.201Z,4.30
2018-04-13T06:04:53.801Z,5.90
2018-04-13T06:07:28.302Z,4.87
2018-04-13T06:10:03.190Z,1.93
2018-04-13T06:12:37.577Z,8.50
2018-04-13T06:15:11.588Z,7.07
2018-04-13T06:17:45.378Z,0.40
2018-04-13T06:20:19.174Z,1.60
2018-04-13T06:22:52.890Z,2.07
2018-04-13T06:25:28.337Z,0.90
2018-04-13T06:28:02.538Z,4.20
2018-04-13T06:30:36.163Z,3.80
2018-04-13T06:33:10.580Z,7.73
2018-04-13T06:35:44.894Z,7.43
2018-04-13T06:38:19.298Z,4.90
2018-04-13T06:40:53.011Z,4.10
2018-04-13T06:43:26.654Z,5.47
2018-04-13T06:46:01.218Z,0.50
2018-04-13T06:48:34.836Z,1.27
2018-04-13T06:51:08.575Z,11.93
2018-04-13T06:53:42.303Z,4.27
2018-04-13T06:56:16.095Z,0.60
2018-04-13T06:58:49.744Z,0.50
2018-04-13T07:01:23.696Z,1.93
2018-04-13T07:03:57.272Z,1.37
2018-04-13T07:06:32.709Z,1.07
2018-04-13T07:09:06.510Z,1.53
2018-04-13T07:11:40.284Z,1.37
2018-04-13T07:14:13.971Z,11.60
2018-04-13T07:16:47.675Z,2.00
2018-04-13T07:19:21.318Z,2.00
2018-04-13T07:21:55.344Z,4.43
2018-04-13T07:24:28.943Z,3.90
2018-04-13T07:27:03.523Z,2.43
2018-04-13T07:29:38.044Z,4.93
2018-04-13T07:32:12.015Z,1.37
2018-04-13T07:34:45.716Z,0.30
2018-04-13T07:37:19.523Z,0.80
2018-04-13T07:39:54.079Z,2.50
2018-04-13T07:42:28.152Z,3.90
2018-04-13T07:45:01.652Z,1.13
2018-04-13T07:47:35.342Z,1.40
2018-04-13T07:50:10.828Z,12.00
2018-04-13T07:52:44.457Z,5.40
2018-04-13T07:55:19.119Z,11.43
2018-04-13T07:57:53.519Z,4.43
2018-04-13T08:00:27.351Z,4.70
2018-04-13T08:03:00.970Z,0.53
2018-04-13T08:05:34.940Z,9.53
2018-04-13T08:08:09.167Z,9.63
2018-04-13T08:10:44.176Z,4.37
2018-04-13T08:13:17.324Z,2.20
2018-04-13T08:15:51.842Z,0.40
2018-04-13T08:18:26.300Z,0.50
2018-04-13T08:21:00.034Z,0.60
2018-04-13T08:23:33.738Z,2.00
2018-04-13T08:26:07.509Z,0.40
2018-04-13T08:28:41.240Z,3.07
2018-04-13T08:31:15.001Z,3.80
2018-04-13T08:33:48.744Z,4.60
2018-04-13T08:36:22.502Z,1.27
2018-04-13T08:38:56.299Z,2.50
2018-04-13T08:41:30.105Z,0.30
2018-04-13T08:44:03.792Z,4.13
2018-04-13T08:46:37.569Z,5.20
2018-04-13T08:49:11.476Z,4.57
2018-04-13T08:51:45.054Z,5.57
2018-04-13T08:54:18.853Z,4.53
2018-04-13T08:56:52.655Z,2.17
2018-04-13T08:59:26.338Z,4.00
2018-04-13T09:01:59.958Z,2.47
2018-04-13T09:04:34.467Z,6.63
2018-04-13T09:07:08.248Z,4.17
2018-04-13T09:09:42.764Z,3.30
2018-04-13T09:12:17.160Z,9.47
2018-04-13T09:14:52.482Z,10.27
2018-04-13T09:17:26.043Z,4.90
2018-04-13T09:19:59.782Z,3.67
2018-04-13T09:22:33.567Z,4.73
2018-04-13T09:25:07.309Z,5.23
2018-04-13T09:27:42.363Z,1.80
2018-04-13T09:30:16.163Z,4.33
2018-04-13T09:32:50.940Z,0.30
2018-04-13T09:35:24.703Z,2.73
2018-04-13T09:37:58.514Z,2.53
2018-04-13T09:40:32.208Z,4.43
2018-04-13T09:43:05.981Z,0.97
2018-04-13T09:45:39.728Z,0.80
2018-04-13T09:48:13.522Z,1.13
2018-04-13T09:50:47.264Z,3.43
2018-04-13T09:53:21.828Z,4.50
2018-04-13T09:55:55.525Z,6.87
2018-04-13T09:58:29.286Z,4.57
2018-04-13T10:01:03.028Z,8.17
2018-04-13T10:03:42.284Z,2.97
2018-04-13T10:06:16.155Z,8.07
2018-04-13T10:08:49.858Z,1.17
2018-04-13T10:11:23.455Z,0.63
2018-04-13T10:13:57.232Z,3.83
2018-04-13T10:16:30.974Z,4.73
2018-04-13T10:19:04.791Z,5.40
2018-04-13T10:21:38.478Z,1.17
2018-04-13T10:24:12.189Z,2.90
2018-04-13T10:26:46.832Z,5.43
2018-04-13T10:29:20.463Z,0.53
2018-04-13T10:31:54.102Z,0.30
2018-04-13T10:34:27.859Z,5.10
2018-04-13T10:37:01.613Z,1.17
2018-04-13T10:39:35.250Z,1.03
2018-04-13T10:42:08.980Z,0.93
2018-04-13T10:44:43.372Z,1.77
2018-04-13T10:47:17.075Z,10.10
2018-04-13T10:49:51.582Z,3.00
2018-04-13T10:52:25.817Z,3.37
2018-04-13T10:55:00.702Z,2.73
2018-04-13T10:57:34.345Z,0.40
2018-04-13T11:00:08.072Z,4.13
2018-04-13T11:02:42.444Z,0.40
2018-04-13T11:05:16.480Z,0.30
2018-04-13T11:07:50.365Z,0.73
2018-04-13T11:10:23.942Z,2.73
2018-04-13T11:12:57.913Z,2.27
2018-04-13T11:15:32.458Z,0.30
2018-04-13T11:18:06.448Z,2.90
2018-04-13T11:20:40.459Z,3.23
2018-04-13T11:23:14.394Z,4.83
2018-04-13T11:25:49.505Z,2.60
2018-04-13T11:28:23.288Z,6.43
2018-04-13T12:54:45.001Z,4.77
2018-04-13T12:57:18.544Z,8.03
2018-04-13T12:59:52.335Z,6.80
2018-04-13T13:02:26.052Z,12.90
2018-04-13T13:04:59.781Z,9.27
2018-04-13T13:07:33.528Z,7.07
2018-04-13T13:10:07.317Z,13.43
2018-04-13T13:12:48.484Z,14.07
2018-04-13T13:15:23.052Z,5.50
2018-04-13T13:17:56.720Z,6.37
2018-04-13T13:20:32.449Z,4.33
2018-04-13T13:23:07.573Z,3.50
2018-04-13T13:25:41.367Z,1.30
2018-04-13T13:28:18.342Z,0.67
2018-04-13T13:30:53.289Z,11.53
2018-04-13T13:33:28.834Z,5.13
2018-04-13T13:36:03.786Z,6.50
2018-04-13T13:38:48.328Z,7.20
2018-04-13T13:41:23.200Z,20.20
2018-04-13T13:43:58.007Z,13.97
2018-04-13T13:46:31.840Z,2.17
2018-04-13T13:49:07.767Z,8.03
2018-04-13T13:51:43.134Z,7.53
2018-04-13T13:54:18.912Z,11.60
2018-04-13T13:56:55.041Z,11.20
2018-04-13T13:59:37.038Z,14.17
2018-04-13T14:02:11.920Z,1.77
2018-04-13T14:04:47.669Z,4.07
2018-04-13T14:07:21.394Z,18.83
2018-04-13T14:09:55.389Z,13.90
2018-04-13T14:12:34.399Z,16.83
2018-04-13T14:15:10.067Z,12.30
2018-04-13T14:17:43.710Z,7.10
2018-04-13T14:20:19.172Z,15.20
2018-04-13T14:22:53.041Z,12.20
2018-04-13T14:25:26.736Z,3.50
2018-04-13T14:28:01.378Z,21.33
2018-04-13T14:30:36.457Z,3.70
2018-04-13T14:33:10.420Z,2.00
2018-04-13T14:35:46.126Z,9.30
2018-04-13T14:38:19.885Z,11.00
2018-04-13T14:40:53.637Z,20.63
2018-04-13T14:43:27.589Z,13.13
2018-04-13T14:46:01.395Z,2.07
2018-04-13T14:48:36.072Z,9.73
2018-04-13T14:51:10.905Z,10.70
2018-04-13T14:53:44.679Z,13.63
2018-04-13T14:56:19.412Z,8.43
2018-04-13T14:58:54.020Z,9.60
2018-04-13T15:01:27.796Z,5.33
2018-04-13T15:04:01.586Z,10.90
2018-04-13T15:06:35.320Z,13.10
2018-04-13T15:09:08.863Z,2.60
2018-04-13T15:11:42.625Z,5.30
2018-04-13T15:14:16.243Z,10.23
2018-04-13T15:16:49.939Z,2.40
2018-04-13T15:19:24.111Z,4.47
2018-04-13T15:21:58.489Z,4.40
2018-04-13T15:24:35.002Z,8.80
2018-04-13T15:27:09.419Z,14.87
2018-04-13T15:29:49.782Z,14.17
2018-04-13T15:32:24.809Z,11.77
2018-04-13T15:34:59.737Z,11.33
2018-04-13T15:37:35.132Z,13.80
2018-04-13T15:40:09.616Z,10.57
2018-04-13T15:42:43.336Z,4.87
2018-04-13T15:45:16.918Z,13.43
2018-04-13T15:47:50.470Z,8.37
2018-04-13T15:50:24.898Z,12.07
2018-04-13T15:53:00.192Z,13.33
2018-04-13T15:55:34.006Z,15.10
2018-04-13T15:58:07.749Z,7.03
2018-04-13T16:00:41.388Z,27.03
2018-04-13T16:03:15.125Z,26.27
2018-04-13T16:05:48.903Z,15.60
2018-04-13T16:08:22.641Z,9.67
2018-04-13T16:10:56.449Z,30.20
2018-04-13T16:13:30.076Z,15.80
2018-04-13T16:16:03.751Z,11.53
2018-04-13T16:18:37.351Z,17.10
2018-04-13T16:21:11.429Z,14.70
2018-04-13T16:23:45.111Z,14.10
2018-04-13T16:26:18.825Z,22.00
2018-04-13T16:28:52.411Z,16.33
2018-04-13T16:31:26.102Z,9.47
2018-04-13T16:33:59.883Z,23.50
2018-04-13T16:36:33.667Z,13.80
2018-04-13T16:39:08.176Z,11.07
2018-04-13T16:41:41.902Z,19.70
2018-04-13T16:44:15.582Z,18.80
2018-04-13T16:46:50.094Z,20.30
2018-04-13T16:49:23.860Z,15.70
2018-04-13T16:51:57.611Z,6.97
2018-04-13T16:54:31.370Z,6.67
2018-04-13T16:57:05.808Z,14.90
2018-04-13T16:59:39.510Z,18.87
2018-04-13T17:02:13.235Z,18.57
2018-04-13T17:04:47.003Z,12.50
2018-04-13T17:07:20.826Z,11.83
2018-04-13T17:09:55.255Z,10.70
2018-04-13T17:12:28.917Z,24.10
2018-04-13T17:15:02.734Z,14.77
2018-04-13T17:17:36.532Z,5.97
2018-04-13T17:20:11.134Z,6.93
2018-04-13T17:22:44.856Z,9.90
2018-04-13T17:25:18.565Z,16.60
2018-04-13T17:27:56.090Z,8.33
2018-04-13T17:30:29.883Z,9.83
2018-04-13T17:33:03.679Z,5.33
2018-04-13T17:35:38.124Z,3.27
2018-04-13T17:38:11.902Z,14.17
2018-04-13T17:40:46.473Z,11.07
2018-04-13T17:43:20.159Z,7.67
2018-04-13T17:45:53.885Z,12.30
2018-04-13T17:48:27.664Z,13.23
2018-04-13T17:51:01.273Z,17.50
2018-04-13T17:53:35.058Z,7.33
2018-04-13T17:56:08.876Z,19.33
2018-04-13T17:58:42.593Z,4.53
2018-04-13T18:03:56.436Z,21.77
2018-04-13T18:06:30.948Z,12.00
2018-04-13T18:09:04.662Z,10.20
2018-04-13T18:11:38.374Z,6.23
2018-04-13T18:14:12.137Z,3.20
2018-04-13T18:16:45.834Z,4.10
2018-04-13T18:19:19.613Z,8.40
2018-04-13T18:21:53.410Z,10.20
2018-04-13T18:24:27.199Z,9.20
2018-04-13T18:27:00.923Z,11.83
2018-04-13T18:29:34.587Z,8.13
2018-04-13T18:32:08.331Z,7.53
2018-04-13T18:34:41.998Z,9.03
2018-04-13T18:37:15.791Z,9.98
2018-04-13T18:39:49.392Z,8.30
2018-04-13T18:42:23.106Z,5.13
2018-04-13T18:44:57.957Z,6.82
2018-04-13T18:47:31.659Z,2.50
2018-04-13T18:50:05.463Z,10.23
2018-04-13T18:52:39.091Z,9.53
2018-04-13T18:55:12.731Z,7.87
2018-04-13T18:57:46.540Z,8.57
2018-04-13T19:00:20.099Z,8.60
2018-04-13T19:02:53.754Z,11.13
2018-04-13T19:05:27.655Z,6.50
2018-04-13T19:08:01.295Z,9.23
2018-04-13T19:10:35.038Z,11.17
2018-04-13T19:13:08.740Z,12.70
2018-04-13T19:15:42.508Z,10.63
2018-04-13T19:18:16.299Z,6.20
2018-04-13T19:20:50.068Z,8.20
2018-04-13T19:23:23.840Z,6.13
2018-04-13T19:25:57.465Z,5.10
2018-04-13T19:28:31.320Z,12.83
2018-04-13T19:31:05.007Z,13.17
2018-04-13T19:33:39.461Z,6.33
2018-04-13T19:36:13.195Z,15.57
2018-04-13T19:38:46.971Z,3.87
2018-04-13T19:41:20.752Z,9.20
2018-04-13T19:43:54.495Z,9.57
2018-04-13T19:46:28.149Z,11.07
2018-04-13T19:49:01.919Z,5.27
2018-04-13T19:51:35.687Z,7.70
2018-04-13T19:54:10.251Z,12.60
2018-04-13T19:56:43.960Z,14.07
2018-04-13T19:59:17.769Z,25.73
2018-04-13T20:01:51.475Z,36.03
2018-04-13T20:04:25.173Z,32.60
2018-04-13T20:06:58.958Z,20.97
2018-04-13T20:09:32.695Z,13.13
2018-04-13T20:12:06.416Z,8.17
2018-04-13T20:14:40.205Z,6.77
2018-04-13T20:17:13.934Z,5.97
2018-04-13T20:19:47.752Z,12.10
2018-04-13T20:22:21.496Z,8.90
2018-04-13T20:24:55.111Z,11.03
2018-04-13T20:27:28.797Z,6.13
2018-04-13T20:30:02.485Z,11.80
2018-04-13T20:32:36.188Z,6.50
2018-04-13T20:35:09.929Z,11.40
2018-04-13T20:37:44.414Z,14.43
2018-04-13T20:40:18.152Z,8.73
2018-04-13T20:42:51.821Z,22.20
2018-04-13T20:45:25.536Z,4.80
2018-04-13T20:47:59.248Z,11.23
2018-04-13T20:50:32.916Z,12.30
2018-04-13T20:53:06.717Z,11.87
2018-04-13T20:55:40.430Z,7.37
2018-04-13T20:58:14.163Z,15.90
2018-04-13T21:00:47.984Z,5.23
2018-04-13T21:03:21.707Z,15.43
2018-04-13T21:05:56.204Z,10.00
2018-04-13T21:08:30.114Z,16.43
2018-04-13T21:11:03.704Z,7.20
2018-04-13T21:13:37.495Z,13.13
2018-04-13T21:16:12.024Z,22.10
2018-04-13T21:18:45.677Z,27.33
2018-04-13T21:21:19.699Z,21.40
2018-04-13T21:23:53.276Z,27.00
2018-04-13T21:26:27.792Z,17.27
2018-04-13T21:29:02.363Z,15.90
2018-04-13T21:31:36.074Z,22.30
2018-04-13T21:34:09.942Z,26.10
2018-04-13T21:36:43.546Z,9.73
2018-04-13T21:39:17.428Z,25.20
2018-04-13T21:41:51.134Z,31.63
2018-04-13T21:44:25.687Z,31.20
2018-04-13T21:47:00.150Z,33.10
2018-04-13T21:49:33.946Z,28.70
2018-04-13T21:52:07.633Z,36.07
2018-04-13T21:54:42.093Z,27.43
2018-04-13T21:57:15.857Z,20.47
2018-04-13T21:59:49.601Z,43.87
2018-04-13T22:02:23.310Z,32.80
2018-04-13T22:04:56.898Z,26.53
2018-04-13T22:07:31.110Z,21.10
2018-04-13T22:10:04.740Z,23.97
2018-04-13T22:12:50.985Z,20.43
2018-04-13T22:15:26.636Z,36.97
2018-04-13T22:18:00.300Z,28.10
2018-04-13T22:20:34.082Z,30.33
2018-04-13T22:23:07.805Z,41.73
2018-04-13T22:25:41.574Z,34.40
2018-04-13T22:28:15.196Z,19.33
2018-04-13T22:30:48.979Z,21.53
2018-04-13T22:33:22.736Z,21.10
2018-04-13T22:35:56.381Z,19.00
2018-04-13T22:38:31.160Z,25.23
2018-04-13T22:41:04.920Z,20.30
2018-04-13T22:43:38.686Z,23.10
2018-04-13T22:46:13.505Z,22.10
2018-04-13T22:48:47.237Z,28.30
2018-04-13T22:54:02.015Z,30.20
2018-04-13T22:56:35.786Z,30.07
2018-04-13T22:59:10.271Z,21.40
2018-04-13T23:01:44.055Z,36.45
2018-04-13T23:04:17.795Z,25.60
2018-04-13T23:06:51.485Z,23.33
2018-04-13T23:09:25.189Z,22.93
2018-04-13T23:11:58.988Z,22.05
2018-04-13T23:14:32.734Z,36.60
2018-04-13T23:17:06.525Z,30.05
2018-04-13T23:19:40.274Z,28.95
2018-04-13T23:22:26.651Z,22.65
2018-04-13T23:25:00.381Z,33.88
2018-04-13T23:27:34.176Z,29.20
2018-04-13T23:30:07.775Z,22.05
2018-04-13T23:32:41.527Z,22.92
2018-04-13T23:35:15.200Z,14.82
2018-04-13T23:37:49.650Z,17.27
2018-04-13T23:40:23.506Z,23.55
2018-04-13T23:42:57.211Z,24.02
2018-04-13T23:45:30.954Z,15.40
2018-04-13T23:48:04.565Z,8.60
2018-04-13T23:50:38.239Z,11.18
2018-04-13T23:53:11.983Z,21.30
2018-04-13T23:55:46.523Z,14.33
2018-04-13T23:58:20.278Z,7.80
